Terminal Aerodrome Forecast
Issued by NWS

Home | Current Version | Previous Version | Text Only | Print | Product List | Glossary On
Versions: 1 2 3 4 5 6 7 8 9 10 11 12 13 14 15 16 17 18 19
000
FTUS46 KOTX 210413 AAC
TAFCOE
TAF AMD
KCOE 210413Z 2104/2124 20010KT P6SM BKN015 OVC020
     FM210600 22010KT P6SM SCT025 SCT080
     FM211100 VRB04KT 4SM BR VCFG SCT001 SCT015 BKN250
     FM211700 VRB04KT 4SM -RASN BR SCT007 BKN012 OVC018=

USA.gov is the U.S. government's official web portal to all federal, state and local government web resources and services.